createdAt,value
2023-02-18T00:00:09.673Z,17.40
2023-02-18T00:02:39.439Z,17.50
2023-02-18T00:05:07.786Z,17.50
2023-02-18T00:07:36.298Z,17.40
2023-02-18T00:10:12.061Z,17.40
2023-02-18T00:12:43.240Z,17.40
2023-02-18T00:15:11.641Z,17.40
2023-02-18T00:17:41.352Z,17.40
2023-02-18T00:20:10.137Z,17.40
2023-02-18T00:22:38.460Z,17.50
2023-02-18T00:25:07.329Z,17.40
2023-02-18T00:27:37.812Z,17.40
2023-02-18T00:30:07.505Z,17.40
2023-02-18T00:32:36.008Z,17.40
2023-02-18T00:35:06.004Z,17.40
2023-02-18T00:37:35.441Z,17.40
2023-02-18T00:40:06.694Z,17.40
2023-02-18T00:42:37.830Z,17.40
2023-02-18T00:45:06.771Z,17.40
2023-02-18T00:47:35.077Z,17.40
2023-02-18T00:50:05.250Z,17.40
2023-02-18T00:52:33.655Z,17.40
2023-02-18T00:55:02.003Z,17.40
2023-02-18T00:57:33.138Z,17.50
2023-02-18T01:00:01.503Z,17.40
2023-02-18T01:02:29.871Z,17.40
2023-02-18T01:05:00.233Z,17.40
2023-02-18T01:07:29.941Z,17.40
2023-02-18T01:09:59.623Z,17.40
2023-02-18T01:12:35.569Z,17.50
2023-02-18T01:15:04.347Z,17.50
2023-02-18T01:17:32.736Z,17.50
2023-02-18T01:20:01.150Z,17.40
2023-02-18T01:22:34.922Z,17.30
2023-02-18T01:25:03.269Z,17.40
2023-02-18T01:27:37.587Z,17.40
2023-02-18T01:30:09.486Z,17.40
2023-02-18T01:32:37.821Z,17.40
2023-02-18T01:35:06.880Z,17.50
2023-02-18T01:37:36.658Z,17.40
2023-02-18T01:40:05.249Z,17.50
2023-02-18T01:42:33.683Z,17.50
2023-02-18T01:45:38.426Z,17.40
2023-02-18T01:48:08.534Z,17.50
2023-02-18T01:50:38.099Z,17.40
2023-02-18T01:53:09.705Z,17.40
2023-02-18T01:55:38.019Z,17.40
2023-02-18T01:58:06.317Z,17.40
2023-02-18T02:00:37.687Z,17.40
2023-02-18T02:03:05.999Z,17.40
2023-02-18T02:05:34.912Z,17.40
2023-02-18T02:08:03.374Z,17.40
2023-02-18T02:10:39.566Z,17.30
2023-02-18T02:13:09.396Z,17.40
2023-02-18T02:15:41.576Z,17.40
2023-02-18T02:18:25.191Z,17.40
2023-02-18T02:21:15.785Z,17.40
2023-02-18T02:24:10.791Z,17.50
2023-02-18T02:27:03.669Z,17.50
2023-02-18T02:29:59.387Z,17.40
2023-02-18T02:33:06.535Z,17.40
2023-02-18T02:35:36.304Z,17.40
2023-02-18T02:38:05.947Z,17.40
2023-02-18T02:40:53.881Z,17.40
2023-02-18T02:43:26.041Z,17.50
2023-02-18T02:45:56.995Z,17.50
2023-02-18T02:48:30.851Z,17.50
2023-02-18T02:51:05.158Z,17.30
2023-02-18T02:53:35.001Z,17.40
2023-02-18T02:56:03.315Z,17.40
2023-02-18T02:58:31.872Z,17.40
2023-02-18T03:01:22.887Z,17.40
2023-02-18T03:04:13.151Z,17.40
2023-02-18T03:07:05.686Z,17.40
2023-02-18T03:09:39.463Z,17.40
2023-02-18T03:12:08.443Z,17.40
2023-02-18T03:14:41.776Z,17.40
2023-02-18T03:17:12.796Z,17.40
2023-02-18T03:19:43.080Z,17.40
2023-02-18T03:22:13.642Z,17.50
2023-02-18T03:24:42.963Z,17.40
2023-02-18T03:27:12.885Z,17.40
2023-02-18T03:29:41.472Z,17.50
2023-02-18T03:32:09.888Z,17.50
2023-02-18T03:34:39.643Z,17.50
2023-02-18T03:37:08.000Z,17.50
2023-02-18T03:39:38.180Z,17.50
2023-02-18T03:42:09.314Z,17.60
2023-02-18T03:44:37.645Z,17.60
2023-02-18T03:47:06.068Z,17.60
2023-02-18T03:49:34.391Z,17.60
2023-02-18T03:52:02.715Z,17.60
2023-02-18T03:54:34.129Z,17.60
2023-02-18T03:57:03.859Z,17.60
2023-02-18T03:59:32.216Z,17.60
2023-02-18T04:02:00.863Z,17.60
2023-02-18T04:04:29.442Z,17.50
2023-02-18T04:06:57.853Z,17.50
2023-02-18T04:09:26.592Z,17.50
2023-02-18T04:11:54.957Z,17.50
2023-02-18T04:14:24.750Z,17.50
2023-02-18T04:16:53.083Z,17.50
2023-02-18T04:19:21.474Z,17.50
2023-02-18T04:21:49.797Z,17.60
2023-02-18T04:24:18.169Z,17.60
2023-02-18T04:26:46.538Z,17.60
2023-02-18T04:29:14.865Z,17.60
2023-02-18T04:31:44.650Z,17.60
2023-02-18T04:34:12.991Z,17.60
2023-02-18T04:36:41.328Z,17.60
2023-02-18T04:39:12.508Z,17.60
2023-02-18T04:41:40.824Z,17.60
2023-02-18T04:44:09.123Z,17.60
2023-02-18T04:46:37.477Z,17.60
2023-02-18T04:49:10.166Z,17.60
2023-02-18T04:51:38.639Z,17.60
2023-02-18T04:54:07.006Z,17.60
2023-02-18T04:56:35.363Z,17.70
2023-02-18T04:59:03.720Z,17.60
2023-02-18T05:01:32.058Z,17.60
2023-02-18T05:04:00.442Z,17.60
2023-02-18T05:06:30.122Z,17.60
2023-02-18T05:08:58.481Z,17.60
2023-02-18T05:11:26.796Z,17.70
2023-02-18T05:13:55.168Z,17.70
2023-02-18T05:16:25.101Z,17.60
2023-02-18T05:18:53.483Z,17.60
2023-02-18T05:21:21.906Z,17.60
2023-02-18T05:23:51.593Z,17.60
2023-02-18T05:26:19.925Z,17.70
2023-02-18T05:28:48.305Z,17.70
2023-02-18T05:31:16.720Z,17.70
2023-02-18T05:33:45.054Z,17.70
2023-02-18T05:36:13.418Z,17.60
2023-02-18T05:38:41.719Z,17.60
2023-02-18T05:41:11.363Z,17.60
2023-02-18T05:43:53.655Z,17.70
2023-02-18T05:46:22.069Z,17.60
2023-02-18T05:48:50.409Z,17.60
2023-02-18T05:51:18.767Z,17.60
2023-02-18T05:53:47.046Z,17.60
2023-02-18T05:56:16.763Z,17.60
2023-02-18T05:58:45.505Z,17.60
2023-02-18T06:01:13.824Z,17.60
2023-02-18T06:03:42.175Z,17.60
2023-02-18T06:06:11.566Z,17.60
2023-02-18T06:08:41.366Z,17.60
2023-02-18T06:11:09.800Z,17.60
2023-02-18T06:13:39.504Z,17.60
2023-02-18T06:16:08.350Z,17.60
2023-02-18T06:18:36.878Z,17.60
2023-02-18T06:21:05.339Z,17.60
2023-02-18T06:23:33.713Z,17.50
2023-02-18T06:26:02.110Z,17.60
2023-02-18T06:28:30.433Z,17.60
2023-02-18T06:31:00.298Z,17.50
2023-02-18T06:33:28.703Z,17.60
2023-02-18T06:35:57.361Z,17.50
2023-02-18T06:38:25.684Z,17.60
2023-02-18T06:40:54.058Z,17.50
2023-02-18T06:43:22.591Z,17.50
2023-02-18T06:45:50.939Z,17.50
2023-02-18T06:48:20.608Z,17.60
2023-02-18T06:50:51.857Z,17.60
2023-02-18T06:53:20.207Z,17.60
2023-02-18T06:55:48.547Z,17.50
2023-02-18T06:58:17.693Z,17.50
2023-02-18T07:00:46.313Z,17.40
2023-02-18T07:03:14.980Z,17.50
2023-02-18T07:05:44.705Z,17.50
2023-02-18T07:08:15.942Z,17.50
2023-02-18T07:10:44.378Z,17.50
2023-02-18T07:13:19.905Z,17.50
2023-02-18T07:15:49.540Z,17.50
2023-02-18T07:18:17.995Z,17.60
2023-02-18T07:20:54.930Z,17.60
2023-02-18T07:23:23.320Z,17.60
2023-02-18T07:25:51.601Z,17.60
2023-02-18T07:28:20.367Z,17.60
2023-02-18T07:30:48.716Z,17.60
2023-02-18T07:33:19.283Z,17.70
2023-02-18T07:35:53.791Z,17.70
2023-02-18T07:38:22.325Z,17.70
2023-02-18T07:40:50.759Z,17.80
2023-02-18T07:43:19.210Z,17.80
2023-02-18T07:45:52.317Z,17.80
2023-02-18T07:48:20.718Z,17.90
2023-02-18T07:50:50.438Z,17.80
2023-02-18T07:53:18.801Z,17.90
2023-02-18T07:55:53.136Z,17.90
2023-02-18T07:58:22.486Z,17.90
2023-02-18T08:00:50.888Z,18.00
2023-02-18T08:03:19.445Z,18.00
2023-02-18T08:05:50.602Z,18.00
2023-02-18T08:08:20.476Z,18.00
2023-02-18T08:10:49.184Z,18.10
2023-02-18T08:13:17.484Z,18.10
2023-02-18T08:15:48.268Z,18.10
2023-02-18T08:18:17.715Z,18.10
2023-02-18T08:20:47.148Z,18.20
2023-02-18T08:23:22.213Z,18.20
2023-02-18T08:25:56.999Z,18.20
2023-02-18T08:28:25.446Z,18.20
2023-02-18T08:30:54.589Z,18.30
2023-02-18T08:33:23.276Z,18.30
2023-02-18T08:35:52.438Z,18.30
2023-02-18T08:38:22.214Z,18.40
2023-02-18T08:40:50.616Z,18.40
2023-02-18T08:43:19.180Z,18.50
2023-02-18T08:45:47.568Z,18.50
2023-02-18T08:48:20.580Z,18.50
2023-02-18T08:50:49.201Z,18.60
2023-02-18T08:53:19.019Z,18.60
2023-02-18T08:55:48.806Z,18.40
2023-02-18T08:58:17.528Z,18.30
2023-02-18T09:00:45.991Z,18.30
2023-02-18T09:03:14.764Z,18.30
2023-02-18T09:05:43.251Z,18.30
2023-02-18T09:08:11.628Z,18.30
2023-02-18T09:10:40.451Z,18.20
2023-02-18T09:13:10.154Z,18.20
2023-02-18T09:15:38.672Z,18.20
2023-02-18T09:18:07.147Z,18.30
2023-02-18T09:20:35.560Z,18.40
2023-02-18T09:23:04.212Z,18.40
2023-02-18T09:25:32.701Z,18.30
2023-02-18T09:28:02.774Z,18.40
2023-02-18T09:30:32.530Z,18.40
2023-02-18T09:33:01.043Z,18.40
2023-02-18T09:35:31.824Z,18.30
2023-02-18T09:38:00.163Z,18.30
2023-02-18T09:40:32.828Z,18.30
2023-02-18T09:43:01.136Z,18.30
2023-02-18T09:45:29.524Z,18.30
2023-02-18T09:47:59.205Z,18.30
2023-02-18T09:50:28.708Z,18.40
2023-02-18T09:52:57.772Z,18.40
2023-02-18T09:55:28.511Z,18.40
2023-02-18T09:58:00.968Z,18.40
2023-02-18T10:00:33.217Z,18.50
2023-02-18T10:03:04.699Z,18.50
2023-02-18T10:05:33.407Z,18.50
2023-02-18T10:08:03.028Z,18.50
2023-02-18T10:10:37.998Z,18.50
2023-02-18T10:13:07.943Z,18.50
2023-02-18T10:15:36.317Z,18.50
2023-02-18T10:18:06.200Z,18.50
2023-02-18T10:20:34.901Z,18.50
2023-02-18T10:23:15.331Z,18.50
2023-02-18T10:25:45.238Z,18.50
2023-02-18T10:28:13.749Z,18.40
2023-02-18T10:30:45.886Z,18.40
2023-02-18T10:33:28.262Z,18.40
2023-02-18T10:35:58.734Z,18.40
2023-02-18T10:38:31.357Z,18.40
2023-02-18T10:41:01.944Z,18.40
2023-02-18T10:43:40.143Z,18.40
2023-02-18T10:46:15.471Z,18.40
2023-02-18T10:49:02.601Z,18.40
2023-02-18T10:51:33.260Z,18.40
2023-02-18T10:54:04.674Z,18.40
2023-02-18T10:56:38.619Z,18.40
2023-02-18T10:59:12.852Z,18.40
2023-02-18T11:01:43.844Z,18.40
2023-02-18T11:04:17.537Z,18.30
2023-02-18T11:06:52.811Z,18.40
2023-02-18T11:09:29.948Z,18.40
2023-02-18T11:12:09.103Z,18.30
2023-02-18T11:14:48.826Z,18.40
2023-02-18T11:17:21.927Z,18.40
2023-02-18T11:19:56.131Z,18.40
2023-02-18T11:22:25.533Z,18.50
2023-02-18T11:24:57.534Z,18.40
2023-02-18T11:27:28.695Z,18.40
2023-02-18T11:30:01.035Z,18.40
2023-02-18T11:32:29.698Z,18.40
2023-02-18T11:34:59.381Z,18.40
2023-02-18T11:37:27.733Z,18.50
2023-02-18T11:39:56.391Z,18.50
2023-02-18T11:42:26.268Z,18.40
2023-02-18T11:45:05.135Z,18.40
2023-02-18T11:47:36.994Z,18.50
2023-02-18T11:50:21.932Z,18.40
2023-02-18T11:52:56.671Z,18.40
2023-02-18T11:55:30.978Z,18.40
2023-02-18T11:58:04.101Z,18.40
2023-02-18T12:00:39.067Z,18.40
2023-02-18T12:03:09.699Z,18.40
2023-02-18T12:05:39.409Z,18.40
2023-02-18T12:08:13.994Z,18.40
2023-02-18T12:10:43.511Z,18.30
2023-02-18T12:13:20.479Z,18.40
2023-02-18T12:15:55.145Z,18.40
2023-02-18T12:18:40.426Z,18.40
2023-02-18T12:21:20.870Z,18.40
2023-02-18T12:23:56.952Z,18.30
2023-02-18T12:26:27.714Z,18.30
2023-02-18T12:29:14.909Z,18.30
2023-02-18T12:32:01.209Z,18.30
2023-02-18T12:34:38.068Z,18.30
2023-02-18T12:37:14.544Z,18.30
2023-02-18T12:39:57.721Z,18.30
2023-02-18T12:42:44.645Z,18.20
2023-02-18T12:45:36.713Z,18.20
2023-02-18T12:48:23.062Z,18.20
2023-02-18T12:51:01.117Z,18.20
2023-02-18T12:53:40.844Z,18.20
2023-02-18T12:56:22.595Z,18.20
2023-02-18T12:58:55.343Z,18.20
2023-02-18T13:01:36.599Z,18.20
2023-02-18T13:04:29.056Z,18.20
2023-02-18T13:07:11.943Z,18.20
2023-02-18T13:09:48.820Z,18.20
2023-02-18T13:12:25.103Z,18.20
2023-02-18T13:14:58.342Z,18.20
2023-02-18T13:17:30.649Z,18.20
2023-02-18T13:20:00.739Z,18.10
2023-02-18T13:22:30.184Z,18.20
2023-02-18T13:25:00.047Z,18.20
2023-02-18T13:27:31.023Z,18.20
2023-02-18T13:30:05.726Z,18.10
2023-02-18T13:32:36.739Z,18.10
2023-02-18T13:35:08.884Z,18.20
2023-02-18T13:37:39.519Z,18.20
2023-02-18T13:40:14.617Z,18.10
2023-02-18T13:42:45.785Z,18.10
2023-02-18T13:45:32.395Z,18.20
2023-02-18T13:48:00.812Z,18.10
2023-02-18T13:50:33.862Z,18.10
2023-02-18T13:53:23.908Z,18.10
2023-02-18T13:55:56.158Z,18.10
2023-02-18T13:58:26.902Z,18.20
2023-02-18T14:00:59.047Z,18.20
2023-02-18T14:03:36.148Z,18.20
2023-02-18T14:06:08.421Z,18.20
2023-02-18T14:08:37.047Z,18.20
2023-02-18T14:11:37.879Z,18.20
2023-02-18T14:14:16.590Z,18.20
2023-02-18T14:17:25.856Z,18.20
2023-02-18T14:19:54.836Z,18.20
2023-02-18T14:22:28.755Z,18.20
2023-02-18T14:24:58.295Z,18.20
2023-02-18T14:27:27.976Z,18.20
2023-02-18T14:29:56.286Z,18.10
2023-02-18T14:32:24.752Z,18.10
2023-02-18T14:35:14.559Z,18.10
2023-02-18T14:38:16.543Z,18.10
2023-02-18T14:41:02.213Z,18.10
2023-02-18T14:43:41.073Z,18.10
2023-02-18T14:46:13.825Z,18.00
2023-02-18T14:49:03.830Z,18.00
2023-02-18T14:51:33.060Z,18.00
2023-02-18T14:54:05.331Z,18.00
2023-02-18T14:56:33.789Z,18.00
2023-02-18T14:59:03.547Z,18.00
2023-02-18T15:01:32.937Z,18.00
2023-02-18T15:04:01.953Z,18.00
2023-02-18T15:06:31.540Z,17.90
2023-02-18T15:09:00.906Z,17.80
2023-02-18T15:11:36.412Z,17.90
2023-02-18T15:14:09.851Z,17.90
2023-02-18T15:16:38.209Z,17.80
2023-02-18T15:19:07.223Z,17.80
2023-02-18T15:21:38.375Z,17.70
2023-02-18T15:24:09.532Z,17.70
2023-02-18T15:26:44.555Z,17.70
2023-02-18T15:29:17.194Z,17.60
2023-02-18T15:31:45.620Z,17.70
2023-02-18T15:34:34.803Z,17.60
2023-02-18T15:37:04.001Z,17.60
2023-02-18T15:39:33.396Z,17.60
2023-02-18T15:42:04.037Z,17.60
2023-02-18T15:44:34.014Z,17.60
2023-02-18T15:47:03.001Z,17.60
2023-02-18T15:49:31.928Z,17.60
2023-02-18T15:52:01.250Z,17.60
2023-02-18T15:54:29.656Z,17.60
2023-02-18T15:57:01.563Z,17.50
2023-02-18T15:59:30.690Z,17.50
2023-02-18T16:02:19.582Z,17.50
2023-02-18T16:04:59.179Z,17.50
2023-02-18T16:07:28.728Z,17.40
2023-02-18T16:10:11.185Z,17.40
2023-02-18T16:12:40.045Z,17.40
2023-02-18T16:15:11.448Z,17.40
2023-02-18T16:17:44.456Z,17.40
2023-02-18T16:20:18.117Z,17.40
2023-02-18T16:22:47.579Z,17.40
2023-02-18T16:25:17.589Z,17.30
2023-02-18T16:27:53.378Z,17.30
2023-02-18T16:30:22.795Z,17.30
2023-02-18T16:32:52.955Z,17.30
2023-02-18T16:35:21.387Z,17.40
2023-02-18T16:37:50.331Z,17.40
2023-02-18T16:40:24.528Z,17.30
2023-02-18T16:42:52.889Z,17.30
2023-02-18T16:45:21.515Z,17.30
2023-02-18T16:47:54.379Z,17.20
2023-02-18T16:50:22.969Z,17.20
2023-02-18T16:52:54.422Z,17.20
2023-02-18T16:55:23.868Z,17.20
2023-02-18T16:57:52.197Z,17.20
2023-02-18T17:00:21.126Z,17.20
2023-02-18T17:02:50.611Z,17.20
2023-02-18T17:05:28.388Z,17.20
2023-02-18T17:07:56.727Z,17.00
2023-02-18T17:10:25.160Z,16.80
2023-02-18T17:12:53.514Z,16.70
2023-02-18T17:15:29.984Z,16.70
2023-02-18T17:17:59.245Z,16.60
2023-02-18T17:20:29.136Z,16.50
2023-02-18T17:22:58.471Z,16.50
2023-02-18T17:25:30.685Z,16.40
2023-02-18T17:27:59.056Z,16.30
2023-02-18T17:30:27.459Z,16.30
2023-02-18T17:32:55.892Z,16.30
2023-02-18T17:35:24.574Z,16.30
2023-02-18T17:37:54.373Z,16.30
2023-02-18T17:40:24.163Z,16.30
2023-02-18T17:42:52.521Z,16.20
2023-02-18T17:45:22.570Z,16.20
2023-02-18T17:47:50.917Z,16.20
2023-02-18T17:50:19.550Z,16.20
2023-02-18T17:52:47.919Z,16.10
2023-02-18T17:55:22.225Z,16.10
2023-02-18T17:57:50.920Z,16.20
2023-02-18T18:00:21.184Z,16.40
2023-02-18T18:02:49.503Z,16.50
2023-02-18T18:05:19.481Z,16.50
2023-02-18T18:07:48.808Z,16.60
2023-02-18T18:10:17.375Z,16.70
2023-02-18T18:12:47.148Z,16.70
2023-02-18T18:15:23.674Z,16.80
2023-02-18T18:17:52.135Z,16.70
2023-02-18T18:20:20.543Z,16.70
2023-02-18T18:22:48.948Z,16.80
2023-02-18T18:25:19.489Z,16.70
2023-02-18T18:27:50.454Z,16.70
2023-02-18T18:30:19.650Z,16.70
2023-02-18T18:32:47.984Z,16.70
2023-02-18T18:35:24.688Z,16.70
2023-02-18T18:37:53.243Z,16.80
2023-02-18T18:40:22.388Z,16.80
2023-02-18T18:42:52.169Z,16.80
2023-02-18T18:45:22.442Z,16.80
2023-02-18T18:47:51.113Z,16.80
2023-02-18T18:50:19.857Z,16.70
2023-02-18T18:52:48.682Z,16.80
2023-02-18T18:55:21.857Z,16.70
2023-02-18T18:57:51.570Z,16.70
2023-02-18T19:00:21.051Z,16.80
2023-02-18T19:02:49.363Z,16.80
2023-02-18T19:05:23.445Z,16.80
2023-02-18T19:07:51.843Z,16.80
2023-02-18T19:10:20.212Z,16.80
2023-02-18T19:12:48.750Z,16.70
2023-02-18T19:15:20.518Z,16.70
2023-02-18T19:17:50.249Z,16.80
2023-02-18T19:20:19.809Z,16.90
2023-02-18T19:22:48.129Z,16.90
2023-02-18T19:25:16.635Z,17.00
2023-02-18T19:27:45.456Z,17.10
2023-02-18T19:30:15.583Z,17.10
2023-02-18T19:32:45.352Z,17.10
2023-02-18T19:35:13.740Z,17.20
2023-02-18T19:37:42.127Z,17.20
2023-02-18T19:40:12.523Z,17.10
2023-02-18T19:42:40.880Z,17.10
2023-02-18T19:45:10.160Z,17.20
2023-02-18T19:47:38.603Z,17.20
2023-02-18T19:50:10.002Z,17.20
2023-02-18T19:52:38.335Z,17.10
2023-02-18T19:55:07.636Z,17.10
2023-02-18T19:57:36.044Z,17.10
2023-02-18T20:00:05.432Z,17.00
2023-02-18T20:02:33.874Z,17.00
2023-02-18T20:05:02.419Z,17.00
2023-02-18T20:07:32.254Z,17.00
2023-02-18T20:10:00.553Z,17.00
2023-02-18T20:12:29.151Z,17.00
2023-02-18T20:14:57.493Z,17.00
2023-02-18T20:17:25.890Z,17.00
2023-02-18T20:19:54.221Z,17.00
2023-02-18T20:22:22.874Z,17.00
2023-02-18T20:24:52.686Z,17.00
2023-02-18T20:27:21.022Z,17.00
2023-02-18T20:29:51.538Z,17.00
2023-02-18T20:32:20.149Z,16.90
2023-02-18T20:34:48.791Z,16.90
2023-02-18T20:37:17.104Z,16.80
2023-02-18T20:39:45.545Z,16.80
2023-02-18T20:42:16.849Z,16.70
2023-02-18T20:44:45.458Z,16.70
2023-02-18T20:47:14.030Z,16.70
2023-02-18T20:49:42.770Z,16.80
2023-02-18T20:52:11.105Z,16.70
2023-02-18T20:54:40.078Z,16.70
2023-02-18T20:57:09.018Z,16.70
2023-02-18T20:59:38.873Z,16.60
2023-02-18T21:02:11.296Z,16.70
2023-02-18T21:04:39.631Z,16.70
2023-02-18T21:07:10.656Z,16.60
2023-02-18T21:09:39.157Z,16.70
2023-02-18T21:12:09.677Z,16.60
2023-02-18T21:14:39.624Z,16.70
2023-02-18T21:17:09.597Z,16.70
2023-02-18T21:19:38.064Z,16.60
2023-02-18T21:22:06.660Z,16.60
2023-02-18T21:24:36.814Z,16.60
2023-02-18T21:27:05.235Z,16.60
2023-02-18T21:29:34.390Z,16.60
2023-02-18T21:32:06.777Z,16.50
2023-02-18T21:34:35.156Z,16.60
2023-02-18T21:37:03.482Z,16.60
2023-02-18T21:39:35.080Z,16.70
2023-02-18T21:42:10.583Z,16.70
2023-02-18T21:44:43.098Z,16.60
2023-02-18T21:47:17.990Z,16.60
2023-02-18T21:49:46.267Z,16.70
2023-02-18T21:52:14.598Z,16.60
2023-02-18T21:54:44.690Z,16.70
2023-02-18T21:57:14.156Z,16.80
2023-02-18T21:59:42.678Z,16.90
2023-02-18T22:02:16.935Z,16.90
2023-02-18T22:04:45.598Z,16.80
2023-02-18T22:07:14.210Z,16.90
2023-02-18T22:09:42.647Z,16.90
2023-02-18T22:12:11.667Z,16.90
2023-02-18T22:14:40.145Z,16.90
2023-02-18T22:17:08.570Z,17.00
2023-02-18T22:19:38.319Z,17.10
2023-02-18T22:22:06.672Z,17.00
2023-02-18T22:24:35.100Z,17.00
2023-02-18T22:27:03.478Z,17.00
2023-02-18T22:29:35.015Z,17.00
2023-02-18T22:32:03.392Z,17.20
2023-02-18T22:34:31.732Z,17.30
2023-02-18T22:37:01.399Z,17.40
2023-02-18T22:39:29.848Z,17.40
2023-02-18T22:41:58.219Z,17.40
2023-02-18T22:44:27.330Z,17.50
2023-02-18T22:46:55.911Z,17.50
2023-02-18T22:49:24.418Z,17.50
2023-02-18T22:51:53.781Z,17.50
2023-02-18T22:54:23.578Z,17.60
2023-02-18T22:56:51.946Z,17.60
2023-02-18T22:59:20.378Z,17.50
2023-02-18T23:01:49.716Z,17.60
2023-02-18T23:04:19.123Z,17.60
2023-02-18T23:06:47.654Z,17.60
2023-02-18T23:09:16.946Z,17.60
2023-02-18T23:11:46.657Z,17.60
2023-02-18T23:14:21.555Z,17.60
2023-02-18T23:17:08.594Z,17.60
2023-02-18T23:19:37.189Z,17.60
2023-02-18T23:22:05.564Z,17.60
2023-02-18T23:24:34.336Z,17.50
2023-02-18T23:27:04.256Z,17.60
2023-02-18T23:29:32.579Z,17.60
2023-02-18T23:32:01.028Z,17.50
2023-02-18T23:34:29.584Z,17.60
2023-02-18T23:36:58.306Z,17.60
2023-02-18T23:39:26.699Z,17.60
2023-02-18T23:41:55.058Z,17.60
2023-02-18T23:44:25.451Z,17.50
2023-02-18T23:46:53.827Z,17.60
2023-02-18T23:49:23.132Z,17.60
2023-02-18T23:51:51.648Z,17.60
2023-02-18T23:54:19.967Z,17.70
2023-02-18T23:56:48.310Z,17.60
2023-02-18T23:59:16.660Z,17.60
